Time;durP1;ratioP1;P1;durP2;ratioP2;P2;SDS_P1;SDS_P2;PMS_P1;PMS_P2;Temp;Humidity;BMP_temperature;BMP_pressure;BME280_temperature;BME280_humidity;BME280_pressure;Samples;Min_cycle;Max_cycle;Signal;HPM_P1;HPM_P2
2021/05/05 00:01:22;;;;;;;6.63;2.73;;;;;;;12.95;38.06;97961.60;125512;1104;103102;-71
2021/05/05 00:03:49;;;;;;;4.47;2.43;;;;;;;12.93;37.98;97960.91;125549;1104;103096;-70
2021/05/05 00:06:21;;;;;;;5.83;2.87;;;;;;;12.91;38.24;97954.89;125551;1098;103062;-71
2021/05/05 00:08:48;;;;;;;5.80;3.20;;;;;;;12.91;38.18;97953.08;125520;1104;102990;-72
2021/05/05 00:11:19;;;;;;;8.03;3.00;;;;;;;12.89;38.05;97955.06;125563;1104;103412;-71
2021/05/05 00:13:47;;;;;;;7.50;3.10;;;;;;;12.87;38.34;97954.38;125585;1099;103051;-71
2021/05/05 00:16:14;;;;;;;3.80;2.57;;;;;;;12.86;38.34;97959.85;125620;1104;103102;-71
2021/05/05 00:18:41;;;;;;;7.20;2.97;;;;;;;12.85;38.13;97959.03;125569;1104;103106;-70
2021/05/05 00:21:09;;;;;;;7.15;2.75;;;;;;;12.83;38.31;97950.33;125571;1098;102984;-71
2021/05/05 00:23:36;;;;;;;6.87;2.90;;;;;;;12.83;38.16;97952.18;125525;1098;103080;-71
2021/05/05 00:26:03;;;;;;;6.70;3.20;;;;;;;12.81;38.50;97949.65;125518;1104;103013;-71
2021/05/05 00:28:31;;;;;;;8.85;3.33;;;;;;;12.80;38.37;97946.16;126739;1099;103448;-71
2021/05/05 00:30:58;;;;;;;7.03;2.70;;;;;;;12.81;38.53;97946.98;125409;1099;102985;-71
2021/05/05 00:33:25;;;;;;;5.47;2.93;;;;;;;12.81;38.36;97936.31;125500;1104;103090;-69
2021/05/05 00:35:53;;;;;;;7.27;3.30;;;;;;;12.82;38.38;97951.33;125449;1104;103119;-69
2021/05/05 00:38:24;;;;;;;6.37;2.60;;;;;;;12.82;38.27;97940.66;125394;1104;103060;-71
2021/05/05 00:40:51;;;;;;;3.77;2.70;;;;;;;12.81;38.28;97954.98;125531;1104;103116;-69
2021/05/05 00:43:18;;;;;;;5.40;2.73;;;;;;;12.78;38.60;97931.27;125545;1104;103115;-68
2021/05/05 00:45:50;;;;;;;5.70;2.93;;;;;;;12.77;38.34;97933.13;125505;1099;103045;-68
2021/05/05 00:48:17;;;;;;;6.63;2.70;;;;;;;12.77;38.71;97929.59;125417;1104;103107;-68
2021/05/05 00:50:45;;;;;;;5.20;3.00;;;;;;;12.77;38.71;97932.27;127607;1104;100978;-70
2021/05/05 00:53:12;;;;;;;7.47;2.70;;;;;;;12.77;38.71;97935.78;127641;1104;101059;-70
2021/05/05 00:55:40;;;;;;;9.00;3.13;;;;;;;12.76;38.77;97930.59;125715;1104;103486;-69
2021/05/05 00:58:08;;;;;;;4.80;2.80;;;;;;;12.76;38.77;97927.92;125392;1100;102995;-69
2021/05/05 01:00:36;;;;;;;6.10;2.55;;;;;;;12.76;38.84;97933.25;127624;1104;100963;-68
2021/05/05 01:03:06;;;;;;;6.17;3.10;;;;;;;12.77;38.69;97932.27;126423;1104;102991;-69
2021/05/05 01:05:38;;;;;;;4.60;2.57;;;;;;;12.77;38.69;97934.94;125524;1104;102982;-69
2021/05/05 01:08:09;;;;;;;4.47;2.50;;;;;;;12.77;38.52;97930.45;125525;1104;103151;-70
2021/05/05 01:10:36;;;;;;;6.60;2.50;;;;;;;12.78;38.71;97933.95;125565;1104;103215;-70
2021/05/05 01:13:13;;;;;;;6.33;2.33;;;;;;;12.77;38.62;97929.59;125543;1104;103010;-70
2021/05/05 01:15:44;;;;;;;4.98;2.50;;;;;;;12.75;38.88;97926.24;125579;1104;103086;-70
2021/05/05 01:18:12;;;;;;;7.13;2.83;;;;;;;12.73;38.71;97930.89;125599;1098;103183;-70
2021/05/05 01:20:43;;;;;;;6.00;2.63;;;;;;;12.73;38.73;97930.89;125487;1104;103103;-68
2021/05/05 01:23:10;;;;;;;6.00;2.57;;;;;;;12.72;38.64;97934.55;125500;1104;103129;-69
2021/05/05 01:25:45;;;;;;;7.95;2.90;;;;;;;12.72;38.78;97937.22;125549;1104;103017;-69
2021/05/05 01:28:12;;;;;;;6.43;2.80;;;;;;;12.72;38.89;97931.88;125519;1105;103059;-70
2021/05/05 01:30:39;;;;;;;5.17;2.50;;;;;;;12.72;38.90;97942.55;125382;1104;103102;-69
2021/05/05 01:33:10;;;;;;;8.27;2.50;;;;;;;12.72;38.85;97934.55;125580;1104;103051;-69
2021/05/05 01:35:37;;;;;;;5.97;2.00;;;;;;;12.73;38.86;97928.22;125618;1104;102993;-70
2021/05/05 01:38:05;;;;;;;5.13;2.67;;;;;;;12.74;39.04;97932.57;125559;1104;103084;-68
2021/05/05 01:40:38;;;;;;;6.80;3.40;;;;;;;12.75;39.13;97931.58;125542;1104;103468;-69
2021/05/05 01:43:09;;;;;;;5.35;2.75;;;;;;;12.73;38.98;97929.08;125520;1104;103077;-69
2021/05/05 01:45:37;;;;;;;5.43;2.40;;;;;;;12.74;39.08;97927.23;125602;1104;103030;-69
2021/05/05 01:48:10;;;;;;;5.33;2.60;;;;;;;12.75;39.25;97929.77;125565;1104;103003;-71
2021/05/05 01:50:42;;;;;;;5.18;2.58;;;;;;;12.75;39.19;97939.59;125601;1104;103069;-70
2021/05/05 01:53:09;;;;;;;4.77;2.83;;;;;;;12.75;39.16;97932.44;125616;1100;103016;-69
2021/05/05 01:55:36;;;;;;;11.53;3.10;;;;;;;12.74;39.06;97930.75;125690;1104;103090;-70
2021/05/05 01:58:08;;;;;;;8.00;3.27;;;;;;;12.75;39.38;97935.10;125623;1104;102994;-70
2021/05/05 02:00:35;;;;;;;6.27;2.67;;;;;;;12.76;39.08;97928.78;125615;1104;102991;-70
2021/05/05 02:03:06;;;;;;;4.43;2.70;;;;;;;12.75;39.22;97928.91;125500;1100;102991;-70
2021/05/05 02:05:37;;;;;;;6.03;2.47;;;;;;;12.75;39.24;97926.24;125628;1104;103082;-70
2021/05/05 02:08:08;;;;;;;7.47;2.83;;;;;;;12.75;39.17;97926.24;125632;1104;103100;-69
2021/05/05 02:10:40;;;;;;;4.80;2.37;;;;;;;12.76;39.06;97917.25;125623;1100;103053;-69
2021/05/05 02:13:08;;;;;;;6.03;2.70;;;;;;;12.75;39.26;97919.09;125697;1104;102991;-70
2021/05/05 02:15:39;;;;;;;4.80;2.47;;;;;;;12.76;39.34;97909.24;125628;1104;103182;-70
2021/05/05 02:18:09;;;;;;;3.70;2.37;;;;;;;12.77;39.28;97914.45;125569;1104;103115;-70
2021/05/05 02:20:46;;;;;;;7.40;3.20;;;;;;;12.79;39.17;97908.94;125613;1099;103125;-70
2021/05/05 02:23:14;;;;;;;5.63;2.73;;;;;;;12.80;39.54;97897.27;125668;1104;102982;-69
2021/05/05 02:25:41;;;;;;;8.03;2.90;;;;;;;12.82;39.32;97895.29;125680;1104;103083;-71
2021/05/05 02:28:09;;;;;;;4.97;2.23;;;;;;;12.83;39.00;97901.48;125681;1105;103569;-70
2021/05/05 02:30:40;;;;;;;5.70;2.93;;;;;;;12.83;39.19;97899.63;125649;1104;103134;-69
2021/05/05 02:33:11;;;;;;;5.30;2.40;;;;;;;12.80;39.25;97908.80;125641;1099;103218;-70
2021/05/05 02:35:38;;;;;;;7.10;2.87;;;;;;;12.79;39.14;97911.61;125581;1104;103108;-73
2021/05/05 02:38:06;;;;;;;5.47;2.70;;;;;;;12.77;39.19;97911.77;125678;1100;103025;-71
2021/05/05 02:40:37;;;;;;;5.67;2.67;;;;;;;12.79;39.13;97900.94;125639;1104;103093;-72
2021/05/05 02:43:04;;;;;;;5.23;2.47;;;;;;;12.79;38.98;97893.78;125634;1104;103086;-72
2021/05/05 02:45:31;;;;;;;6.50;2.70;;;;;;;12.80;39.21;97889.27;125450;1100;103260;-70
2021/05/05 02:47:59;;;;;;;7.30;3.00;;;;;;;12.79;38.99;97904.45;125906;1104;103038;-70
2021/05/05 02:50:30;;;;;;;6.93;2.80;;;;;;;12.83;39.07;97909.48;125622;1098;103081;-71
2021/05/05 02:53:01;;;;;;;6.57;2.60;;;;;;;12.81;38.88;97909.63;125547;1104;103105;-71
2021/05/05 02:55:28;;;;;;;7.27;2.60;;;;;;;12.83;38.97;97898.81;125506;1104;102988;-70
2021/05/05 02:57:55;;;;;;;7.75;3.10;;;;;;;12.81;39.26;97885.61;125565;1104;102990;-69
2021/05/05 03:00:26;;;;;;;6.43;3.00;;;;;;;12.80;38.97;97894.61;125450;1104;103017;-70
2021/05/05 03:02:54;;;;;;;4.95;2.75;;;;;;;12.78;38.94;97877.91;125505;1104;103147;-69
2021/05/05 03:05:22;;;;;;;6.87;2.67;;;;;;;12.78;38.67;97880.58;125379;1104;102994;-69
2021/05/05 03:07:53;;;;;;;7.90;3.13;;;;;;;12.76;38.81;97874.56;125527;1104;103207;-70
2021/05/05 03:10:24;;;;;;;6.53;2.93;;;;;;;12.74;39.00;97864.05;125606;1104;103447;-70
2021/05/05 03:12:51;;;;;;;4.43;2.50;;;;;;;12.73;38.93;97861.52;125548;1099;103013;-71
2021/05/05 03:15:22;;;;;;;7.00;2.63;;;;;;;12.72;38.75;97865.19;125610;1100;103019;-72
2021/05/05 03:17:53;;;;;;;5.50;2.77;;;;;;;12.69;38.90;97876.16;125550;1098;103176;-70
2021/05/05 03:20:22;;;;;;;6.67;2.47;;;;;;;12.64;39.00;97853.45;125426;1104;103021;-72
2021/05/05 03:22:49;;;;;;;5.13;2.77;;;;;;;12.61;38.88;97853.79;125632;1104;103090;-69
2021/05/05 03:25:17;;;;;;;7.63;2.70;;;;;;;12.56;38.88;97844.55;125428;1099;103015;-69
2021/05/05 03:27:45;;;;;;;3.73;2.47;;;;;;;12.52;38.86;97862.71;125392;1099;103142;-69
2021/05/05 03:30:16;;;;;;;5.17;2.60;;;;;;;12.48;39.00;97850.67;125585;1104;103155;-68
2021/05/05 03:32:43;;;;;;;6.43;2.67;;;;;;;12.46;39.00;97864.14;125544;1104;102991;-68
2021/05/05 03:35:15;;;;;;;3.17;2.40;;;;;;;12.46;39.12;97865.98;126499;1104;103120;-68
2021/05/05 03:37:43;;;;;;;7.30;2.60;;;;;;;12.42;39.02;97868.13;125524;1104;103118;-68
2021/05/05 03:40:13;;;;;;;4.57;2.57;;;;;;;12.39;39.02;97862.25;125613;1100;102989;-69
2021/05/05 03:42:40;;;;;;;4.23;2.43;;;;;;;12.37;39.18;97867.75;125563;1104;104638;-71
2021/05/05 03:45:08;;;;;;;6.27;2.73;;;;;;;12.34;39.05;97868.88;125579;1098;102991;-71
2021/05/05 03:47:40;;;;;;;4.90;2.77;;;;;;;12.33;39.18;97861.87;125538;1104;103163;-70
2021/05/05 03:50:10;;;;;;;8.83;3.00;;;;;;;12.33;39.25;97863.71;125477;1098;102987;-69
2021/05/05 03:52:38;;;;;;;5.57;2.93;;;;;;;12.32;39.25;97884.19;126529;1104;103019;-69
2021/05/05 03:55:08;;;;;;;5.07;3.10;;;;;;;12.33;39.24;97874.38;125423;1104;102989;-69
2021/05/05 03:57:36;;;;;;;5.90;2.60;;;;;;;12.34;39.39;97878.72;126077;1100;103084;-69
2021/05/05 04:00:07;;;;;;;7.03;3.10;;;;;;;12.35;39.26;97889.22;125560;1100;103065;-70
2021/05/05 04:02:34;;;;;;;4.50;2.63;;;;;;;12.36;39.19;97879.41;125511;1100;103051;-69
2021/05/05 04:05:07;;;;;;;6.33;2.97;;;;;;;12.39;39.48;97886.25;125488;1104;103515;-68
2021/05/05 04:07:35;;;;;;;5.57;2.80;;;;;;;12.39;39.44;97881.77;125953;1104;103069;-68
2021/05/05 04:10:06;;;;;;;5.37;2.77;;;;;;;12.42;39.69;97889.47;125524;1104;103202;-69
2021/05/05 04:12:37;;;;;;;5.70;2.30;;;;;;;12.45;39.46;97885.64;126239;1104;103141;-70
2021/05/05 04:15:25;;;;;;;4.67;2.67;;;;;;;12.48;39.55;97898.67;125450;1105;102990;-71
2021/05/05 04:18:10;;;;;;;6.90;2.93;;;;;;;12.52;39.65;97897.38;125568;1100;103091;-68
2021/05/05 04:21:02;;;;;;;8.37;3.20;;;;;;;12.55;39.47;97888.22;125509;1100;103091;-67
2021/05/05 04:23:50;;;;;;;7.30;3.10;;;;;;;12.57;39.44;97879.09;125521;1104;103005;-69
2021/05/05 04:26:21;;;;;;;7.73;2.93;;;;;;;12.59;39.57;97882.45;125533;1100;103075;-69
2021/05/05 04:28:52;;;;;;;6.00;2.97;;;;;;;12.62;39.71;97865.28;125520;1104;103023;-68
2021/05/05 04:31:21;;;;;;;5.77;3.37;;;;;;;12.64;39.60;97861.45;125522;1100;103109;-69
2021/05/05 04:33:48;;;;;;;5.10;2.60;;;;;;;12.67;39.81;97865.66;125519;1104;103424;-68
2021/05/05 04:36:18;;;;;;;6.07;3.30;;;;;;;12.71;39.74;97858.17;125593;1104;103224;-69
2021/05/05 04:38:46;;;;;;;7.10;2.80;;;;;;;12.75;39.82;97855.06;125528;1098;103118;-67
2021/05/05 04:41:14;;;;;;;8.45;2.70;;;;;;;12.80;39.86;97858.10;125473;1100;103029;-69
2021/05/05 04:43:41;;;;;;;9.87;3.00;;;;;;;12.87;39.95;97860.12;125556;1104;103108;-69
2021/05/05 04:46:12;;;;;;;6.67;2.43;;;;;;;12.91;40.10;97867.67;125528;1099;103089;-69
2021/05/05 04:48:43;;;;;;;5.40;2.43;;;;;;;12.96;39.86;97853.85;125561;1099;102989;-70
2021/05/05 04:51:11;;;;;;;4.47;2.70;;;;;;;12.99;39.72;97853.54;125522;1104;103125;-68
2021/05/05 04:53:38;;;;;;;5.13;2.90;;;;;;;13.02;39.84;97847.06;125500;1104;103027;-69
2021/05/05 04:56:09;;;;;;;5.57;2.87;;;;;;;13.04;39.87;97853.09;125548;1104;103022;-68
2021/05/05 04:58:40;;;;;;;7.27;2.77;;;;;;;13.06;40.13;97856.41;125527;1100;103158;-68
2021/05/05 05:01:07;;;;;;;7.67;3.03;;;;;;;13.09;40.08;97846.27;125473;1100;103086;-68
2021/05/05 05:03:34;;;;;;;7.57;3.20;;;;;;;13.11;40.03;97838.09;125309;1104;103101;-71
2021/05/05 05:06:10;;;;;;;8.27;3.27;;;;;;;13.15;40.00;97847.45;125505;1100;103492;-69
2021/05/05 05:08:37;;;;;;;4.83;2.50;;;;;;;13.19;40.14;97854.16;125545;1100;102992;-71
2021/05/05 05:11:04;;;;;;;4.30;2.87;;;;;;;13.23;39.93;97857.37;125533;1104;103087;-71
2021/05/05 05:13:43;;;;;;;5.70;3.00;;;;;;;13.27;39.86;97869.38;125566;1104;103087;-69
2021/05/05 05:16:13;;;;;;;5.10;2.80;;;;;;;13.32;40.09;97875.09;125535;1104;102985;-69
2021/05/05 05:18:40;;;;;;;6.80;2.73;;;;;;;13.38;40.08;97866.44;125514;1099;103139;-70
2021/05/05 05:21:08;;;;;;;5.57;2.80;;;;;;;13.43;39.98;97867.83;125543;1104;102994;-71
2021/05/05 05:23:37;;;;;;;7.63;3.00;;;;;;;13.49;40.24;97865.35;125477;1100;103062;-69
2021/05/05 05:26:04;;;;;;;5.03;2.60;;;;;;;13.54;40.17;97864.89;125538;1104;103062;-68
2021/05/05 05:28:35;;;;;;;6.00;3.20;;;;;;;13.60;40.18;97871.41;125547;1099;103125;-69
2021/05/05 05:31:06;;;;;;;8.37;2.80;;;;;;;13.65;40.20;97883.28;125415;1104;102992;-69
2021/05/05 05:33:33;;;;;;;7.50;2.80;;;;;;;13.69;40.27;97894.51;125375;1104;103091;-68
2021/05/05 05:36:06;;;;;;;4.73;2.70;;;;;;;13.76;40.17;97894.69;125517;1100;102985;-69
2021/05/05 05:38:33;;;;;;;4.83;2.90;;;;;;;13.80;40.24;97891.55;125486;1104;103043;-70
2021/05/05 05:41:00;;;;;;;6.90;2.75;;;;;;;13.84;40.07;97881.36;125476;1100;103058;-68
2021/05/05 05:43:28;;;;;;;5.60;2.90;;;;;;;13.84;39.96;97886.71;125542;1104;103016;-71
2021/05/05 05:45:55;;;;;;;8.47;2.90;;;;;;;13.87;40.08;97891.73;125525;1104;103016;-70
2021/05/05 05:48:22;;;;;;;5.98;3.05;;;;;;;13.93;40.34;97888.42;125561;1104;103012;-72
2021/05/05 05:50:50;;;;;;;6.80;2.70;;;;;;;13.99;40.21;97890.45;125505;1104;103019;-69
2021/05/05 05:53:17;;;;;;;4.67;2.53;;;;;;;14.06;40.28;97892.48;125551;1104;103122;-70
2021/05/05 05:55:44;;;;;;;5.97;2.70;;;;;;;14.12;40.28;97881.10;125513;1104;103093;-72
2021/05/05 05:58:13;;;;;;;4.67;2.57;;;;;;;14.18;40.42;97885.80;125500;1099;103090;-71
2021/05/05 06:00:40;;;;;;;4.70;2.90;;;;;;;14.22;40.12;97889.83;125465;1105;103087;-71
2021/05/05 06:03:07;;;;;;;3.47;2.43;;;;;;;14.29;40.52;97890.84;125419;1104;102181;-69
2021/05/05 06:05:39;;;;;;;9.87;3.30;;;;;;;14.35;40.21;97878.64;125353;1104;103133;-68
2021/05/05 06:08:06;;;;;;;7.47;2.90;;;;;;;14.41;40.29;97887.86;125381;1099;103074;-70
2021/05/05 06:10:34;;;;;;;10.63;3.17;;;;;;;14.47;40.20;97878.33;125466;1104;103003;-69
2021/05/05 06:13:04;;;;;;;4.63;2.33;;;;;;;14.52;40.32;97870.64;125473;1104;102992;-69
2021/05/05 06:15:31;;;;;;;8.27;3.40;;;;;;;14.55;40.14;97876.48;125499;1104;103443;-69
2021/05/05 06:18:00;;;;;;;6.13;2.63;;;;;;;14.57;40.13;97881.69;125121;1104;102990;-71
2021/05/05 06:20:27;;;;;;;3.53;2.60;;;;;;;14.59;40.22;97879.68;125424;1104;103118;-72
2021/05/05 06:22:54;;;;;;;8.30;2.73;;;;;;;14.62;40.15;97876.67;125487;1104;103011;-71
2021/05/05 06:25:22;;;;;;;8.17;2.47;;;;;;;14.65;40.11;97878.17;125482;1104;103036;-72
2021/05/05 06:27:49;;;;;;;7.10;2.80;;;;;;;14.67;40.20;97873.48;125470;1104;103136;-73
2021/05/05 06:30:17;;;;;;;5.03;2.50;;;;;;;14.72;40.15;97872.00;125483;1100;103179;-72
2021/05/05 06:32:45;;;;;;;6.07;2.80;;;;;;;14.77;40.17;97867.98;125469;1104;103076;-70
2021/05/05 06:35:13;;;;;;;7.37;2.80;;;;;;;14.84;39.96;97864.48;125434;1104;103087;-70
2021/05/05 06:37:40;;;;;;;4.17;2.57;;;;;;;14.91;40.23;97861.96;125423;1100;103136;-72
2021/05/05 06:40:08;;;;;;;6.83;2.70;;;;;;;14.98;40.12;97856.75;125510;1104;103105;-69
2021/05/05 06:42:37;;;;;;;5.37;2.70;;;;;;;15.06;40.10;97862.10;125446;1104;103065;-69
2021/05/05 06:45:05;;;;;;;6.87;2.70;;;;;;;15.13;40.04;97846.18;125466;1105;103224;-71
2021/05/05 06:47:35;;;;;;;5.93;2.80;;;;;;;15.21;40.06;97854.20;125407;1104;103058;-70
2021/05/05 06:50:09;;;;;;;2.57;1.93;;;;;;;15.28;40.06;97849.02;125390;1104;103088;-70
2021/05/05 06:52:36;;;;;;;6.00;2.40;;;;;;;15.40;40.06;97847.61;125465;1099;103067;-70
2021/05/05 06:55:11;;;;;;;5.00;2.50;;;;;;;15.50;40.03;97846.58;125446;1104;103019;-69
2021/05/05 06:57:39;;;;;;;6.63;2.67;;;;;;;15.62;40.08;97837.98;125387;1104;103015;-69
2021/05/05 07:00:10;;;;;;;4.73;2.40;;;;;;;15.73;40.10;97833.25;125549;1104;103235;-71
2021/05/05 07:02:38;;;;;;;6.53;2.83;;;;;;;15.82;39.92;97832.20;125502;1104;103058;-70
2021/05/05 07:05:13;;;;;;;4.03;2.37;;;;;;;15.93;40.07;97825.64;125592;1104;103019;-70
2021/05/05 07:07:41;;;;;;;4.80;2.50;;;;;;;15.99;39.91;97832.98;125409;1104;103079;-70
2021/05/05 07:10:12;;;;;;;9.00;2.80;;;;;;;16.00;40.04;97825.75;125290;1100;103140;-71
2021/05/05 07:12:43;;;;;;;6.60;2.80;;;;;;;16.05;39.98;97829.59;125427;1104;103019;-70
2021/05/05 07:15:11;;;;;;;8.90;3.00;;;;;;;16.14;39.90;97830.37;125463;1104;103651;-71
2021/05/05 07:17:39;;;;;;;4.80;2.40;;;;;;;16.34;39.93;97821.83;125376;1104;103141;-72
2021/05/05 07:20:07;;;;;;;4.53;2.50;;;;;;;16.54;39.99;97824.86;125526;1104;103183;-69
2021/05/05 07:22:34;;;;;;;6.30;2.60;;;;;;;16.69;40.04;97816.02;125535;1104;103216;-71
2021/05/05 07:25:03;;;;;;;7.85;2.80;;;;;;;16.82;39.63;97816.24;125529;1104;102984;-71
2021/05/05 07:27:32;;;;;;;8.60;2.93;;;;;;;16.91;39.80;97809.75;125383;1104;103112;-69
2021/05/05 07:30:05;;;;;;;8.97;2.60;;;;;;;17.12;39.64;97816.30;125524;1099;103106;-70
2021/05/05 07:32:32;;;;;;;7.40;3.15;;;;;;;17.49;39.84;97811.02;125486;1100;103017;-69
2021/05/05 07:35:01;;;;;;;4.15;2.60;;;;;;;17.80;39.27;97805.38;125482;1100;103043;-69
2021/05/05 07:37:58;;;;;;;12.65;3.10;;;;;;;18.14;39.28;97803.91;125510;1104;103005;-70
2021/05/05 07:40:55;;;;;;;10.10;2.83;;;;;;;18.82;39.10;97799.94;125452;1104;103099;-73
2021/05/05 07:43:41;;;;;;;4.73;2.43;;;;;;;19.25;39.58;97795.48;125503;1100;101114;-71
2021/05/05 07:46:05;;;;;;;5.57;2.93;;;;;;;19.73;39.22;97786.59;125497;1100;103103;-70
2021/05/05 07:48:50;;;;;;;4.63;2.37;;;;;;;20.03;39.24;97787.09;125488;1104;103033;-70
2021/05/05 07:51:24;;;;;;;6.43;3.00;;;;;;;20.40;39.32;97784.05;125498;1104;103477;-72
2021/05/05 07:53:52;;;;;;;7.17;2.33;;;;;;;20.92;39.02;97778.05;125453;1104;103146;-70
2021/05/05 07:56:20;;;;;;;6.30;2.80;;;;;;;21.42;38.46;97770.19;125520;1104;103158;-69
2021/05/05 07:58:47;;;;;;;5.07;2.80;;;;;;;22.21;38.58;97763.77;125551;1104;103082;-69
2021/05/05 08:01:17;;;;;;;8.17;2.67;;;;;;;22.92;38.50;97760.92;125473;1104;103562;-70
2021/05/05 08:03:47;;;;;;;4.00;2.60;;;;;;;23.48;38.33;97763.70;125484;1104;103165;-70
2021/05/05 08:06:16;;;;;;;5.47;2.80;;;;;;;23.94;38.54;97761.42;125433;1100;103085;-69
2021/05/05 08:08:44;;;;;;;8.50;2.83;;;;;;;24.22;37.88;97757.30;125414;1104;102995;-70
2021/05/05 08:11:12;;;;;;;5.53;2.73;;;;;;;24.78;37.67;97746.16;125463;1104;103105;-69
2021/05/05 08:13:40;;;;;;;6.73;2.57;;;;;;;25.19;36.54;97747.07;125387;1104;103148;-67
2021/05/05 08:16:08;;;;;;;8.37;3.10;;;;;;;25.33;36.56;97730.49;125387;1100;103123;-70
2021/05/05 08:18:37;;;;;;;6.00;2.80;;;;;;;25.69;36.80;97737.49;125466;1104;102996;-69
2021/05/05 08:21:07;;;;;;;5.63;2.13;;;;;;;26.47;36.28;97743.52;125390;1104;103139;-69
2021/05/05 08:23:36;;;;;;;5.40;2.50;;;;;;;26.78;36.29;97731.20;125445;1098;104564;-69
2021/05/05 08:26:07;;;;;;;4.23;2.60;;;;;;;27.12;35.07;97719.39;125552;1099;103294;-68
2021/05/05 08:28:35;;;;;;;10.37;2.73;;;;;;;27.33;35.34;97715.02;125489;1104;103013;-68
2021/05/05 08:31:04;;;;;;;9.67;3.00;;;;;;;27.35;34.75;97715.59;125463;1099;103019;-70
2021/05/05 08:33:33;;;;;;;6.63;2.20;;;;;;;27.56;34.46;97705.77;125565;1100;102996;-69
2021/05/05 08:36:02;;;;;;;5.87;2.57;;;;;;;27.89;34.51;97709.42;125517;1104;103013;-69
2021/05/05 08:38:29;;;;;;;5.67;2.40;;;;;;;27.88;32.88;97710.50;125576;1105;103104;-70
2021/05/05 08:40:57;;;;;;;10.50;2.70;;;;;;;27.90;33.95;97705.61;125507;1097;103175;-66
2021/05/05 08:43:25;;;;;;;7.80;2.40;;;;;;;28.07;32.55;97696.45;125449;1104;102997;-71
2021/05/05 08:45:59;;;;;;;14.37;3.83;;;;;;;28.12;33.02;97698.45;125443;1104;103075;-70
2021/05/05 08:48:27;;;;;;;10.17;2.93;;;;;;;28.27;33.41;97698.56;125542;1104;103123;-69
2021/05/05 08:50:55;;;;;;;11.70;3.10;;;;;;;28.58;32.60;97697.98;125470;1104;103235;-72
2021/05/05 08:53:22;;;;;;;6.83;2.70;;;;;;;28.64;32.55;97695.00;125503;1100;103044;-69
2021/05/05 08:55:49;;;;;;;4.57;2.80;;;;;;;28.76;32.59;97692.09;125533;1104;103059;-69
2021/05/05 08:58:17;;;;;;;6.17;2.40;;;;;;;28.75;32.15;97682.23;125480;1104;103182;-69
2021/05/05 09:00:44;;;;;;;6.70;2.30;;;;;;;28.20;32.35;97685.13;125432;1100;103109;-69
2021/05/05 09:03:11;;;;;;;4.50;2.40;;;;;;;27.68;32.41;97686.53;125491;1104;103150;-70
2021/05/05 09:05:52;;;;;;;5.27;2.87;;;;;;;27.64;32.21;97680.74;125526;1104;103125;-69
2021/05/05 09:08:21;;;;;;;3.87;2.30;;;;;;;27.49;31.26;97675.95;125431;1099;103142;-71
2021/05/05 09:11:07;;;;;;;9.80;2.53;;;;;;;27.46;30.96;97670.16;125406;1104;103097;-70
2021/05/05 09:13:52;;;;;;;7.63;2.80;;;;;;;27.11;31.52;97661.28;125488;1104;103032;-69
2021/05/05 09:16:32;;;;;;;6.83;2.77;;;;;;;27.06;31.61;97663.94;125576;1104;103086;-70
2021/05/05 09:19:11;;;;;;;5.03;2.30;;;;;;;27.26;31.22;97659.83;125482;1098;103000;-69
2021/05/05 09:21:41;;;;;;;8.93;2.70;;;;;;;26.90;31.04;97655.55;125452;1104;103137;-68
2021/05/05 09:24:20;;;;;;;11.50;3.07;;;;;;;26.88;30.32;97643.25;125524;1100;103132;-69
2021/05/05 09:26:54;;;;;;;12.47;2.37;;;;;;;26.83;30.64;97641.30;125433;1100;103458;-69
2021/05/05 09:29:42;;;;;;;8.73;2.63;;;;;;;27.06;30.37;97644.84;125488;1104;103153;-69
2021/05/05 09:32:11;;;;;;;5.60;2.67;;;;;;;26.93;28.39;97651.50;125504;1104;103106;-69
2021/05/05 09:34:40;;;;;;;4.97;2.87;;;;;;;26.66;28.86;97637.74;125565;1104;103492;-69
2021/05/05 09:37:11;;;;;;;15.00;3.07;;;;;;;26.75;29.02;97631.59;125503;1104;103004;-69
2021/05/05 09:39:40;;;;;;;12.75;2.58;;;;;;;26.89;29.02;97623.92;125545;1100;103016;-69
2021/05/05 09:42:29;;;;;;;10.50;2.60;;;;;;;27.19;28.85;97608.98;125470;1104;103066;-70
2021/05/05 09:45:05;;;;;;;7.13;2.30;;;;;;;27.52;28.14;97602.79;125510;1104;102990;-69
2021/05/05 09:47:52;;;;;;;5.93;2.33;;;;;;;27.57;28.02;97605.58;125597;1100;103017;-69
2021/05/05 09:50:41;;;;;;;5.73;2.43;;;;;;;27.84;27.48;97607.44;125597;1104;102993;-70
2021/05/05 09:53:16;;;;;;;11.53;2.50;;;;;;;27.81;27.55;97624.35;125574;1104;103034;-70
2021/05/05 09:55:46;;;;;;;11.03;2.60;;;;;;;27.17;25.23;97592.05;125504;1104;103033;-70
2021/05/05 09:58:47;;;;;;;9.23;2.30;;;;;;;26.19;25.27;97595.38;125628;1100;103022;-71
2021/05/05 10:01:20;;;;;;;5.57;2.10;;;;;;;25.27;25.20;97564.41;125585;1104;102986;-69
2021/05/05 10:03:54;;;;;;;9.10;3.10;;;;;;;24.65;25.21;97574.06;125544;1104;103180;-69
2021/05/05 10:06:38;;;;;;;7.10;2.20;;;;;;;24.28;25.84;97587.09;125453;1104;103084;-71
2021/05/05 10:09:08;;;;;;;10.00;2.40;;;;;;;23.96;25.43;97587.42;125521;1104;102993;-70
2021/05/05 10:11:47;;;;;;;7.87;1.83;;;;;;;23.56;25.36;97576.14;125644;1099;103022;-71
2021/05/05 10:14:18;;;;;;;5.17;2.00;;;;;;;23.34;24.46;97578.56;125585;1099;103149;-71
2021/05/05 10:16:52;;;;;;;9.73;2.63;;;;;;;22.99;25.06;97574.61;125613;1098;103091;-70
2021/05/05 10:19:27;;;;;;;5.77;2.23;;;;;;;22.70;25.84;97568.09;125626;1099;103077;-71
2021/05/05 10:21:59;;;;;;;12.83;2.63;;;;;;;22.55;25.80;97569.32;125560;1104;103062;-71
2021/05/05 10:24:31;;;;;;;10.67;2.57;;;;;;;22.37;25.24;97569.27;125485;1104;102946;-70
2021/05/05 10:26:59;;;;;;;10.53;2.40;;;;;;;22.22;25.49;97567.74;125388;1104;103019;-72
2021/05/05 10:29:29;;;;;;;8.57;2.20;;;;;;;22.29;25.58;97564.98;125464;1104;103086;-70
2021/05/05 10:32:05;;;;;;;12.87;2.70;;;;;;;22.35;25.63;97555.97;125372;1104;103194;-72
2021/05/05 10:34:34;;;;;;;7.07;2.37;;;;;;;22.42;25.99;97553.98;125463;1100;103120;-72
2021/05/05 10:37:07;;;;;;;10.43;2.27;;;;;;;22.45;25.18;97550.05;125408;1104;102987;-71
2021/05/05 10:39:41;;;;;;;6.33;2.30;;;;;;;22.45;25.64;97542.73;125476;1104;103119;-71
2021/05/05 10:42:15;;;;;;;8.33;2.20;;;;;;;22.50;25.62;97547.49;125506;1100;102987;-73
2021/05/05 10:44:51;;;;;;;8.50;2.53;;;;;;;22.47;25.96;97533.55;125537;1104;102985;-72
2021/05/05 10:47:30;;;;;;;8.30;2.07;;;;;;;22.53;25.59;97529.94;125484;1104;103119;-72
2021/05/05 10:50:02;;;;;;;6.00;2.30;;;;;;;22.59;25.89;97526.33;125512;1104;103013;-71
2021/05/05 10:52:42;;;;;;;4.70;2.40;;;;;;;22.52;25.47;97525.58;125496;1104;103021;-70
2021/05/05 10:55:13;;;;;;;12.53;2.47;;;;;;;22.30;25.90;97516.00;125504;1104;103088;-70
2021/05/05 10:58:09;;;;;;;8.97;2.60;;;;;;;22.09;25.96;97511.04;125578;1104;103084;-71
2021/05/05 11:00:54;;;;;;;8.40;2.60;;;;;;;22.01;25.35;97521.10;125524;1104;103074;-72
2021/05/05 11:03:44;;;;;;;11.63;2.43;;;;;;;21.98;25.95;97526.96;125584;1104;102995;-73
2021/05/05 11:06:31;;;;;;;7.73;2.00;;;;;;;22.04;26.18;97517.11;125577;1098;103112;-72
2021/05/05 11:09:12;;;;;;;12.57;2.43;;;;;;;22.07;25.64;97524.78;125497;1104;103455;-72
2021/05/05 11:11:46;;;;;;;5.10;2.40;;;;;;;22.14;25.49;97513.91;125529;1100;103081;-72
2021/05/05 11:14:22;;;;;;;14.27;2.40;;;;;;;22.04;25.28;97538.77;125571;1104;102985;-71
2021/05/05 11:16:58;;;;;;;11.30;2.23;;;;;;;21.81;24.81;97518.59;125482;1099;103011;-70
2021/05/05 11:19:41;;;;;;;8.30;2.30;;;;;;;21.66;25.32;97508.11;125439;1100;103120;-75
2021/05/05 11:22:18;;;;;;;8.53;2.77;;;;;;;21.62;25.85;97501.48;125472;1104;103059;-70
2021/05/05 11:24:47;;;;;;;9.07;2.10;;;;;;;21.71;25.48;97521.81;125518;1104;103007;-69
2021/05/05 11:27:19;;;;;;;17.07;2.77;;;;;;;21.65;25.17;97489.38;125478;1104;103125;-68
2021/05/05 11:29:50;;;;;;;11.10;2.70;;;;;;;21.40;25.60;97490.19;125496;1104;103080;-69
2021/05/05 11:32:24;;;;;;;6.57;2.50;;;;;;;21.37;25.54;97487.92;125492;1100;102988;-70
2021/05/05 11:34:57;;;;;;;8.03;2.47;;;;;;;21.40;25.97;97484.78;125478;1105;103158;-69